sensor_id;sensor_type;location;lat;lon;timestamp;pressure;altitude;pressure_sealevel;temperature;humidity
71903;BME280;59778;50.310;18.780;2023-04-26T00:10:54;98234.13;;;7.17;78.97
71903;BME280;59778;50.310;18.780;2023-04-26T00:26:15;98224.34;;;7.01;75.68
71903;BME280;59778;50.310;18.780;2023-04-26T00:41:36;98238.47;;;6.74;74.19
71903;BME280;59778;50.310;18.780;2023-04-26T00:56:58;98263.00;;;6.50;76.58
71903;BME280;59778;50.310;18.780;2023-04-26T01:12:19;98269.16;;;6.13;75.37
71903;BME280;59778;50.310;18.780;2023-04-26T01:27:42;98277.56;;;5.95;77.76
71903;BME280;59778;50.310;18.780;2023-04-26T01:43:03;98283.66;;;5.81;78.52
71903;BME280;59778;50.310;18.780;2023-04-26T01:58:24;98288.16;;;5.58;79.45
71903;BME280;59778;50.310;18.780;2023-04-26T02:13:46;98291.59;;;5.44;79.63
71903;BME280;59778;50.310;18.780;2023-04-26T02:29:07;98291.16;;;5.32;80.44
71903;BME280;59778;50.310;18.780;2023-04-26T02:44:29;98299.97;;;5.02;81.42
71903;BME280;59778;50.310;18.780;2023-04-26T02:59:51;98297.03;;;4.40;85.33
71903;BME280;59778;50.310;18.780;2023-04-26T03:15:12;98321.38;;;4.14;85.85
71903;BME280;59778;50.310;18.780;2023-04-26T03:30:33;98325.94;;;4.30;84.96
71903;BME280;59778;50.310;18.780;2023-04-26T03:45:55;98350.97;;;4.31;83.80
71903;BME280;59778;50.310;18.780;2023-04-26T04:01:28;98361.84;;;4.21;84.29
71903;BME280;59778;50.310;18.780;2023-04-26T04:16:49;98379.13;;;4.02;84.73
71903;BME280;59778;50.310;18.780;2023-04-26T04:32:10;98391.59;;;4.27;83.42
71903;BME280;59778;50.310;18.780;2023-04-26T04:47:33;98394.16;;;4.45;82.32
71903;BME280;59778;50.310;18.780;2023-04-26T05:02:57;98405.59;;;4.88;80.75
71903;BME280;59778;50.310;18.780;2023-04-26T05:18:19;98418.06;;;4.97;78.82
71903;BME280;59778;50.310;18.780;2023-04-26T05:33:40;98421.22;;;5.33;75.33
71903;BME280;59778;50.310;18.780;2023-04-26T05:49:01;98433.75;;;5.73;73.50
71903;BME280;59778;50.310;18.780;2023-04-26T06:04:22;98440.31;;;5.86;72.31
71903;BME280;59778;50.310;18.780;2023-04-26T06:19:44;98460.88;;;6.57;72.13
71903;BME280;59778;50.310;18.780;2023-04-26T06:35:06;98462.22;;;6.84;68.90
71903;BME280;59778;50.310;18.780;2023-04-26T06:50:27;98455.09;;;6.91;69.93
71903;BME280;59778;50.310;18.780;2023-04-26T07:05:48;98464.16;;;6.98;68.65
71903;BME280;59778;50.310;18.780;2023-04-26T07:21:10;98469.56;;;7.35;68.46
71903;BME280;59778;50.310;18.780;2023-04-26T07:36:31;98476.31;;;7.17;65.42
71903;BME280;59778;50.310;18.780;2023-04-26T07:51:53;98482.63;;;7.09;66.32
71903;BME280;59778;50.310;18.780;2023-04-26T08:07:17;98499.34;;;7.50;65.70
71903;BME280;59778;50.310;18.780;2023-04-26T08:22:38;98499.31;;;8.02;63.13
71903;BME280;59778;50.310;18.780;2023-04-26T08:38:00;98506.53;;;8.24;54.92
71903;BME280;59778;50.310;18.780;2023-04-26T08:53:22;98503.41;;;7.83;55.33
71903;BME280;59778;50.310;18.780;2023-04-26T09:08:44;98500.41;;;8.81;54.21
71903;BME280;59778;50.310;18.780;2023-04-26T09:24:06;98504.59;;;8.33;54.50
71903;BME280;59778;50.310;18.780;2023-04-26T09:39:30;98521.34;;;8.14;51.50
71903;BME280;59778;50.310;18.780;2023-04-26T09:54:54;98501.13;;;8.89;50.27
71903;BME280;59778;50.310;18.780;2023-04-26T10:26:53;98507.03;;;8.78;48.73
71903;BME280;59778;50.310;18.780;2023-04-26T10:42:20;98493.34;;;9.22;45.88
71903;BME280;59778;50.310;18.780;2023-04-26T10:57:48;98503.38;;;8.86;45.22
71903;BME280;59778;50.310;18.780;2023-04-26T11:13:10;98510.19;;;8.96;40.43
71903;BME280;59778;50.310;18.780;2023-04-26T11:28:36;98494.94;;;10.97;40.42
71903;BME280;59778;50.310;18.780;2023-04-26T11:43:58;98498.50;;;11.04;39.05
71903;BME280;59778;50.310;18.780;2023-04-26T11:59:26;98516.50;;;9.67;44.76
71903;BME280;59778;50.310;18.780;2023-04-26T12:14:49;98526.75;;;9.29;44.57
71903;BME280;59778;50.310;18.780;2023-04-26T12:30:10;98536.38;;;10.02;44.80
71903;BME280;59778;50.310;18.780;2023-04-26T12:45:32;98528.22;;;10.58;39.87
71903;BME280;59778;50.310;18.780;2023-04-26T13:00:53;98521.13;;;11.17;37.86
71903;BME280;59778;50.310;18.780;2023-04-26T13:16:15;98539.56;;;9.84;40.31
71903;BME280;59778;50.310;18.780;2023-04-26T13:31:38;98540.44;;;10.81;38.34
71903;BME280;59778;50.310;18.780;2023-04-26T13:47:00;98571.53;;;9.89;44.86
71903;BME280;59778;50.310;18.780;2023-04-26T14:02:21;98556.00;;;11.81;34.85
71903;BME280;59778;50.310;18.780;2023-04-26T14:17:43;98560.19;;;12.10;37.47
71903;BME280;59778;50.310;18.780;2023-04-26T14:33:07;98577.31;;;10.63;41.57
71903;BME280;59778;50.310;18.780;2023-04-26T14:48:28;98581.78;;;10.70;43.33
71903;BME280;59778;50.310;18.780;2023-04-26T15:03:49;98589.41;;;11.49;38.46
71903;BME280;59778;50.310;18.780;2023-04-26T15:19:11;98596.84;;;10.17;40.55
71903;BME280;59778;50.310;18.780;2023-04-26T15:34:38;98586.50;;;11.03;40.28
71903;BME280;59778;50.310;18.780;2023-04-26T15:50:02;98602.22;;;9.89;39.78
71903;BME280;59778;50.310;18.780;2023-04-26T16:05:23;98596.66;;;10.47;38.77
71903;BME280;59778;50.310;18.780;2023-04-26T16:20:45;98618.66;;;9.45;46.24
71903;BME280;59778;50.310;18.780;2023-04-26T16:36:07;98650.84;;;8.69;52.43
71903;BME280;59778;50.310;18.780;2023-04-26T16:51:29;98661.19;;;8.28;54.59
71903;BME280;59778;50.310;18.780;2023-04-26T17:06:50;98660.84;;;8.31;53.87
71903;BME280;59778;50.310;18.780;2023-04-26T17:22:12;98682.84;;;8.28;53.85
71903;BME280;59778;50.310;18.780;2023-04-26T17:37:33;98684.28;;;8.16;53.42
71903;BME280;59778;50.310;18.780;2023-04-26T17:52:54;98709.44;;;8.01;52.43
71903;BME280;59778;50.310;18.780;2023-04-26T18:08:16;98718.09;;;7.97;53.18
71903;BME280;59778;50.310;18.780;2023-04-26T18:23:37;98729.75;;;7.67;55.25
71903;BME280;59778;50.310;18.780;2023-04-26T18:39:01;98750.47;;;7.43;57.22
71903;BME280;59778;50.310;18.780;2023-04-26T18:54:23;98759.81;;;7.33;57.88
71903;BME280;59778;50.310;18.780;2023-04-26T19:09:44;98772.28;;;7.42;58.81
71903;BME280;59778;50.310;18.780;2023-04-26T19:25:06;98772.50;;;7.24;59.94
71903;BME280;59778;50.310;18.780;2023-04-26T19:40:28;98780.91;;;7.37;60.34
71903;BME280;59778;50.310;18.780;2023-04-26T19:55:49;98783.47;;;7.31;61.63
71903;BME280;59778;50.310;18.780;2023-04-26T20:11:10;98796.00;;;7.16;61.36
71903;BME280;59778;50.310;18.780;2023-04-26T20:26:35;98798.91;;;7.06;61.29
71903;BME280;59778;50.310;18.780;2023-04-26T20:41:56;98802.28;;;7.00;62.68
71903;BME280;59778;50.310;18.780;2023-04-26T20:57:17;98805.00;;;6.76;63.76
71903;BME280;59778;50.310;18.780;2023-04-26T21:12:39;98823.72;;;6.37;66.45
71903;BME280;59778;50.310;18.780;2023-04-26T21:28:01;98839.69;;;5.98;68.39
71903;BME280;59778;50.310;18.780;2023-04-26T21:43:23;98840.00;;;5.61;70.50
71903;BME280;59778;50.310;18.780;2023-04-26T21:58:45;98854.28;;;5.19;72.10
71903;BME280;59778;50.310;18.780;2023-04-26T22:14:06;98872.81;;;4.97;74.41
71903;BME280;59778;50.310;18.780;2023-04-26T22:29:27;98879.38;;;4.77;77.83
71903;BME280;59778;50.310;18.780;2023-04-26T22:44:49;98880.63;;;5.08;76.26
71903;BME280;59778;50.310;18.780;2023-04-26T23:00:11;98889.69;;;5.07;76.44
71903;BME280;59778;50.310;18.780;2023-04-26T23:15:32;98903.56;;;4.94;77.85
71903;BME280;59778;50.310;18.780;2023-04-26T23:30:54;98904.72;;;5.09;77.44
71903;BME280;59778;50.310;18.780;2023-04-26T23:46:15;98912.34;;;4.96;79.71
